createdAt,value
2022-08-29T00:00:17.637Z,2.45
2022-08-29T00:02:48.086Z,2.60
2022-08-29T00:05:17.437Z,2.60
2022-08-29T00:07:45.621Z,2.72
2022-08-29T00:10:14.805Z,2.50
2022-08-29T00:12:44.962Z,2.47
2022-08-29T00:15:14.768Z,2.60
2022-08-29T00:17:43.612Z,2.67
2022-08-29T00:20:15.172Z,2.55
2022-08-29T00:22:43.669Z,2.63
2022-08-29T00:25:14.490Z,2.40
2022-08-29T00:27:45.231Z,2.72
2022-08-29T00:30:19.568Z,2.65
2022-08-29T00:32:47.880Z,2.67
2022-08-29T00:35:18.854Z,2.58
2022-08-29T00:37:47.466Z,2.78
2022-08-29T00:40:20.855Z,2.30
2022-08-29T00:42:50.993Z,2.50
2022-08-29T00:45:19.602Z,2.88
2022-08-29T00:47:53.259Z,2.78
2022-08-29T00:52:53.751Z,2.80
2022-08-29T00:55:26.074Z,2.90
2022-08-29T00:57:59.975Z,3.00
2022-08-29T01:00:29.328Z,3.10
2022-08-29T01:02:57.649Z,3.10
2022-08-29T01:05:26.568Z,2.83
2022-08-29T01:07:55.453Z,2.72
2022-08-29T01:10:41.683Z,2.92
2022-08-29T01:13:13.010Z,2.70
2022-08-29T01:15:44.029Z,2.80
2022-08-29T01:18:15.698Z,2.78
2022-08-29T01:20:55.795Z,2.85
2022-08-29T01:23:33.858Z,2.47
2022-08-29T01:26:05.058Z,2.75
2022-08-29T01:28:37.706Z,2.78
2022-08-29T01:31:09.235Z,3.10
2022-08-29T01:33:43.624Z,2.90
2022-08-29T01:36:14.458Z,3.38
2022-08-29T01:38:43.514Z,3.17
2022-08-29T01:41:14.083Z,3.10
2022-08-29T01:43:52.014Z,2.85
2022-08-29T01:46:25.513Z,2.88
2022-08-29T01:48:54.213Z,3.40
2022-08-29T01:51:22.882Z,3.05
2022-08-29T01:53:53.996Z,2.80
2022-08-29T01:56:26.191Z,2.83
2022-08-29T01:58:56.527Z,3.17
2022-08-29T02:01:27.521Z,2.95
2022-08-29T02:03:56.103Z,3.33
2022-08-29T02:06:24.565Z,2.80
2022-08-29T02:08:52.754Z,3.13
2022-08-29T02:11:22.023Z,2.70
2022-08-29T02:13:55.509Z,2.72
2022-08-29T02:16:24.706Z,3.10
2022-08-29T02:18:53.209Z,3.15
2022-08-29T02:21:24.150Z,3.45
2022-08-29T02:23:53.580Z,2.80
2022-08-29T02:26:22.778Z,3.00
2022-08-29T02:28:53.102Z,3.45
2022-08-29T02:31:23.126Z,2.95
2022-08-29T02:33:52.566Z,3.00
2022-08-29T02:36:21.683Z,3.50
2022-08-29T02:38:50.815Z,3.20
2022-08-29T02:41:18.991Z,3.13
2022-08-29T02:43:47.235Z,3.50
2022-08-29T02:46:18.897Z,3.30
2022-08-29T02:48:54.094Z,3.47
2022-08-29T02:51:32.246Z,3.55
2022-08-29T02:54:01.225Z,3.40
2022-08-29T02:56:31.059Z,3.67
2022-08-29T02:58:59.905Z,3.38
2022-08-29T03:01:31.357Z,3.08
2022-08-29T03:03:59.745Z,3.42
2022-08-29T03:06:27.955Z,3.58
2022-08-29T03:08:56.430Z,3.38
2022-08-29T03:11:25.177Z,3.45
2022-08-29T03:13:57.424Z,3.25
2022-08-29T03:16:26.437Z,3.50
2022-08-29T03:18:56.626Z,3.20
2022-08-29T03:21:26.960Z,3.60
2022-08-29T03:23:56.642Z,3.40
2022-08-29T03:26:25.620Z,3.42
2022-08-29T03:28:54.215Z,3.42
2022-08-29T03:31:22.810Z,3.60
2022-08-29T03:33:51.121Z,3.35
2022-08-29T03:36:20.659Z,4.07
2022-08-29T03:38:49.688Z,3.80
2022-08-29T03:41:23.579Z,3.78
2022-08-29T03:43:52.259Z,3.42
2022-08-29T03:46:20.463Z,3.95
2022-08-29T03:48:49.256Z,4.00
2022-08-29T03:51:17.929Z,3.83
2022-08-29T03:53:47.558Z,3.80
2022-08-29T03:56:18.371Z,4.03
2022-08-29T03:58:52.648Z,3.92
2022-08-29T04:01:22.817Z,3.85
2022-08-29T04:03:51.600Z,4.15
2022-08-29T04:06:20.135Z,3.92
2022-08-29T04:08:50.312Z,4.18
2022-08-29T04:11:20.169Z,4.32
2022-08-29T04:13:49.719Z,4.20
2022-08-29T04:16:20.670Z,4.32
2022-08-29T04:18:49.106Z,4.18
2022-08-29T04:21:18.543Z,4.03
2022-08-29T04:23:48.110Z,4.13
2022-08-29T04:26:36.459Z,3.90
2022-08-29T04:29:06.772Z,4.47
2022-08-29T04:31:38.234Z,4.05
2022-08-29T04:34:08.061Z,4.65
2022-08-29T04:36:36.709Z,4.32
2022-08-29T04:39:06.246Z,4.47
2022-08-29T04:41:37.029Z,4.35
2022-08-29T04:44:05.786Z,4.95
2022-08-29T04:46:34.012Z,4.50
2022-08-29T04:49:04.477Z,4.35
2022-08-29T04:51:34.455Z,4.60
2022-08-29T04:54:03.482Z,4.47
2022-08-29T04:56:32.174Z,4.55
2022-08-29T04:59:01.886Z,4.50
2022-08-29T05:01:30.372Z,4.35
2022-08-29T05:03:59.171Z,4.18
2022-08-29T05:06:28.377Z,4.82
2022-08-29T05:08:59.588Z,4.57
2022-08-29T05:11:30.233Z,4.63
2022-08-29T05:13:59.331Z,4.30
2022-08-29T05:16:30.495Z,4.75
2022-08-29T05:19:00.702Z,4.68
2022-08-29T05:21:35.039Z,4.28
2022-08-29T05:24:07.307Z,4.38
2022-08-29T05:26:39.693Z,4.53
2022-08-29T05:29:10.078Z,4.88
2022-08-29T05:31:41.257Z,4.00
2022-08-29T05:34:31.872Z,4.45
2022-08-29T05:36:59.085Z,4.07
2022-08-29T05:39:27.840Z,3.92
2022-08-29T05:41:56.428Z,3.88
2022-08-29T05:44:25.155Z,3.83
2022-08-29T05:46:54.967Z,4.45
2022-08-29T05:49:23.213Z,4.10
2022-08-29T05:51:54.505Z,3.92
2022-08-29T05:54:23.449Z,3.88
2022-08-29T05:56:52.123Z,3.97
2022-08-29T05:59:20.792Z,3.55
2022-08-29T06:01:48.941Z,3.40
2022-08-29T06:04:19.876Z,3.72
2022-08-29T06:06:48.249Z,3.65
2022-08-29T06:09:16.817Z,3.40
2022-08-29T06:11:48.486Z,3.15
2022-08-29T06:14:17.729Z,3.10
2022-08-29T06:16:45.817Z,3.95
2022-08-29T06:19:17.070Z,3.38
2022-08-29T06:21:47.565Z,3.00
2022-08-29T06:24:16.334Z,3.30
2022-08-29T06:26:45.884Z,3.33
2022-08-29T06:29:16.093Z,3.10
2022-08-29T06:31:44.461Z,3.33
2022-08-29T06:34:12.967Z,3.70
2022-08-29T06:36:41.441Z,3.40
2022-08-29T06:39:12.479Z,3.08
2022-08-29T06:41:42.324Z,3.08
2022-08-29T06:44:11.166Z,3.47
2022-08-29T06:46:42.112Z,2.97
2022-08-29T06:49:13.015Z,3.28
2022-08-29T06:51:44.366Z,3.10
2022-08-29T06:54:14.230Z,2.97
2022-08-29T06:56:42.569Z,2.90
2022-08-29T06:59:11.335Z,3.42
2022-08-29T07:01:41.599Z,2.75
2022-08-29T07:04:14.162Z,2.67
2022-08-29T07:06:44.048Z,2.70
2022-08-29T07:09:14.273Z,2.88
2022-08-29T07:11:43.696Z,3.00
2022-08-29T07:14:12.362Z,2.38
2022-08-29T07:16:42.073Z,2.45
2022-08-29T07:19:11.287Z,3.00
2022-08-29T07:21:40.150Z,2.40
2022-08-29T07:24:09.166Z,2.60
2022-08-29T07:26:42.946Z,2.58
2022-08-29T07:29:13.751Z,3.17
2022-08-29T07:31:42.432Z,3.25
2022-08-29T07:34:10.629Z,2.60
2022-08-29T07:36:39.446Z,3.38
2022-08-29T07:39:10.136Z,3.25
2022-08-29T07:41:41.758Z,2.90
2022-08-29T07:44:12.059Z,3.17
2022-08-29T07:46:44.152Z,2.97
2022-08-29T07:49:13.028Z,2.90
2022-08-29T07:51:44.245Z,2.90
2022-08-29T07:54:16.991Z,2.40
2022-08-29T07:56:48.772Z,2.92
2022-08-29T07:59:19.100Z,3.20
2022-08-29T08:01:47.846Z,3.15
2022-08-29T08:04:16.087Z,2.53
2022-08-29T08:06:48.700Z,2.42
2022-08-29T08:09:17.295Z,2.63
2022-08-29T08:11:46.786Z,2.50
2022-08-29T08:14:15.520Z,2.40
2022-08-29T08:16:44.131Z,2.63
2022-08-29T08:19:13.471Z,2.17
2022-08-29T08:21:49.296Z,2.40
2022-08-29T08:24:19.743Z,2.35
2022-08-29T08:26:49.814Z,2.60
2022-08-29T08:29:19.029Z,2.30
2022-08-29T08:31:49.608Z,2.13
2022-08-29T08:34:18.139Z,2.15
2022-08-29T08:36:46.946Z,2.55
2022-08-29T08:39:15.898Z,2.28
2022-08-29T08:41:53.580Z,2.55
2022-08-29T08:44:59.476Z,2.50
2022-08-29T08:47:33.360Z,2.70
2022-08-29T08:50:06.706Z,2.50
2022-08-29T08:52:42.797Z,2.60
2022-08-29T08:55:18.250Z,2.70
2022-08-29T08:57:53.651Z,2.53
2022-08-29T09:00:21.965Z,2.70
2022-08-29T09:03:03.781Z,2.80
2022-08-29T09:05:53.038Z,2.25
2022-08-29T09:08:32.183Z,2.80
2022-08-29T09:11:03.781Z,2.83
2022-08-29T09:13:46.893Z,2.55
2022-08-29T09:16:25.230Z,3.03
2022-08-29T09:18:54.361Z,2.90
2022-08-29T09:24:18.611Z,2.90
2022-08-29T09:26:46.749Z,3.00
2022-08-29T09:29:21.116Z,2.95
2022-08-29T09:32:07.759Z,2.90
2022-08-29T09:35:06.841Z,3.33
2022-08-29T09:37:32.651Z,3.00
2022-08-29T09:40:04.404Z,3.03
2022-08-29T09:42:36.514Z,2.85
2022-08-29T09:45:18.904Z,3.38
2022-08-29T09:47:47.281Z,3.13
2022-08-29T09:50:24.778Z,3.50
2022-08-29T09:52:55.328Z,3.33
2022-08-29T09:55:30.235Z,3.00
2022-08-29T09:58:02.870Z,3.00
2022-08-29T10:00:35.887Z,3.35
2022-08-29T10:03:06.669Z,3.67
2022-08-29T10:05:44.761Z,3.40
2022-08-29T10:08:31.196Z,3.22
2022-08-29T10:11:01.489Z,3.25
2022-08-29T10:13:38.161Z,3.50
2022-08-29T10:16:16.778Z,3.72
2022-08-29T10:18:49.579Z,3.50
2022-08-29T10:21:27.762Z,3.55
2022-08-29T10:24:15.996Z,3.55
2022-08-29T10:26:56.605Z,3.53
2022-08-29T10:29:36.366Z,3.67
2022-08-29T10:32:19.009Z,3.40
2022-08-29T10:35:12.506Z,3.75
2022-08-29T10:37:49.935Z,3.42
2022-08-29T10:40:26.994Z,3.90
2022-08-29T10:43:17.000Z,3.67
2022-08-29T10:45:57.632Z,3.58
2022-08-29T10:48:31.725Z,3.25
2022-08-29T10:51:14.280Z,3.78
2022-08-29T10:53:49.046Z,3.60
2022-08-29T10:56:22.954Z,4.00
2022-08-29T10:59:04.570Z,3.53
2022-08-29T11:01:38.533Z,3.30
2022-08-29T11:04:18.482Z,3.30
2022-08-29T11:06:54.280Z,3.17
2022-08-29T11:09:27.775Z,3.53
2022-08-29T11:12:09.211Z,3.42
2022-08-29T11:14:42.583Z,3.47
2022-08-29T11:17:15.880Z,3.42
2022-08-29T11:22:33.133Z,3.40
2022-08-29T11:25:07.077Z,3.65
2022-08-29T11:27:45.049Z,3.30
2022-08-29T11:30:19.132Z,3.40
2022-08-29T11:32:57.580Z,3.53
2022-08-29T11:35:35.716Z,3.13
2022-08-29T11:38:31.244Z,3.38
2022-08-29T11:41:26.645Z,3.08
2022-08-29T11:43:59.625Z,2.72
2022-08-29T11:46:41.689Z,3.17
2022-08-29T11:49:41.298Z,2.72
2022-08-29T11:52:24.732Z,2.75
2022-08-29T11:58:00.537Z,3.08
2022-08-29T12:00:40.774Z,2.97
2022-08-29T12:03:56.167Z,3.10
2022-08-29T12:06:53.913Z,3.22
2022-08-29T12:09:44.565Z,3.30
2022-08-29T12:12:16.171Z,3.20
2022-08-29T12:14:46.995Z,3.00
2022-08-29T12:18:04.034Z,2.85
2022-08-29T12:20:42.609Z,3.20
2022-08-29T12:23:21.959Z,3.00
2022-08-29T12:28:48.290Z,3.17
2022-08-29T12:32:02.189Z,3.15
2022-08-29T12:34:50.155Z,3.35
2022-08-29T12:37:42.624Z,3.83
2022-08-29T12:40:33.438Z,2.63
2022-08-29T12:43:17.305Z,3.10
2022-08-29T12:45:47.627Z,3.38
2022-08-29T12:48:21.834Z,3.08
2022-08-29T12:50:50.469Z,2.88
2022-08-29T12:53:23.449Z,2.85
2022-08-29T12:55:55.565Z,3.25
2022-08-29T12:58:38.617Z,2.85
2022-08-29T13:01:10.703Z,2.97
2022-08-29T13:03:38.933Z,2.83
2022-08-29T13:06:14.434Z,3.00
2022-08-29T13:08:42.826Z,3.08
2022-08-29T13:11:13.051Z,2.90
2022-08-29T13:13:43.173Z,2.58
2022-08-29T13:16:24.865Z,2.72
2022-08-29T13:19:10.130Z,3.00
2022-08-29T13:21:39.650Z,2.60
2022-08-29T13:24:13.774Z,2.72
2022-08-29T13:26:55.952Z,2.53
2022-08-29T13:29:38.051Z,2.72
2022-08-29T13:32:24.448Z,2.60
2022-08-29T13:35:18.040Z,3.03
2022-08-29T13:37:48.048Z,3.00
2022-08-29T13:40:37.110Z,2.90
2022-08-29T13:43:07.352Z,3.10
2022-08-29T13:45:37.700Z,2.72
2022-08-29T13:48:20.527Z,2.83
2022-08-29T13:50:49.281Z,3.03
2022-08-29T13:53:17.691Z,2.67
2022-08-29T13:55:46.046Z,2.75
2022-08-29T13:58:15.993Z,3.05
2022-08-29T14:00:46.594Z,2.85
2022-08-29T14:03:17.176Z,2.80
2022-08-29T14:05:45.830Z,2.88
2022-08-29T14:08:14.738Z,3.20
2022-08-29T14:10:43.664Z,3.10
2022-08-29T14:13:12.302Z,2.60
2022-08-29T14:15:40.623Z,2.90
2022-08-29T14:18:10.725Z,2.72
2022-08-29T14:20:39.135Z,2.92
2022-08-29T14:23:07.399Z,3.15
2022-08-29T14:25:35.966Z,3.05
2022-08-29T14:28:04.464Z,3.00
2022-08-29T14:30:32.765Z,3.08
2022-08-29T14:33:02.938Z,3.28
2022-08-29T14:35:33.973Z,3.17
2022-08-29T14:38:04.258Z,3.38
2022-08-29T14:40:37.067Z,3.20
2022-08-29T14:43:06.430Z,3.45
2022-08-29T14:45:34.588Z,3.15
2022-08-29T14:48:02.789Z,3.20
2022-08-29T14:50:32.915Z,3.20
2022-08-29T14:53:01.407Z,2.97
2022-08-29T14:55:29.611Z,2.95
2022-08-29T14:57:57.955Z,3.03
2022-08-29T15:00:28.969Z,3.30
2022-08-29T15:02:57.497Z,3.40
2022-08-29T15:05:25.904Z,3.40
2022-08-29T15:07:55.515Z,3.58
2022-08-29T15:10:27.643Z,4.13
2022-08-29T15:12:56.269Z,3.40
2022-08-29T15:15:29.694Z,3.40
2022-08-29T15:17:58.776Z,3.47
2022-08-29T15:20:37.293Z,2.88
2022-08-29T15:23:07.967Z,3.03
2022-08-29T15:25:36.200Z,2.90
2022-08-29T15:28:06.575Z,3.40
2022-08-29T15:30:35.425Z,2.95
2022-08-29T15:33:03.889Z,2.90
2022-08-29T15:35:32.164Z,3.33
2022-08-29T15:38:00.700Z,2.97
2022-08-29T15:40:30.784Z,3.08
2022-08-29T15:42:59.131Z,3.03
2022-08-29T15:45:27.670Z,3.25
2022-08-29T15:47:58.950Z,3.28
2022-08-29T15:50:27.764Z,3.08
2022-08-29T15:52:56.616Z,3.22
2022-08-29T15:55:24.839Z,3.40
2022-08-29T15:57:54.427Z,2.90
2022-08-29T16:00:30.313Z,3.28
2022-08-29T16:03:00.805Z,2.95
2022-08-29T16:05:29.961Z,3.35
2022-08-29T16:07:58.466Z,3.00
2022-08-29T16:10:26.996Z,3.25
2022-08-29T16:12:56.688Z,3.33
2022-08-29T16:15:25.042Z,3.42
2022-08-29T16:17:53.810Z,2.72
2022-08-29T16:20:22.401Z,3.35
2022-08-29T16:22:50.997Z,2.80
2022-08-29T16:25:19.994Z,3.40
2022-08-29T16:27:48.700Z,3.10
2022-08-29T16:30:18.916Z,2.90
2022-08-29T16:32:48.358Z,3.60
2022-08-29T16:35:17.195Z,3.53
2022-08-29T16:37:45.968Z,3.20
2022-08-29T16:40:20.625Z,2.78
2022-08-29T16:42:55.451Z,2.70
2022-08-29T16:45:25.758Z,2.92
2022-08-29T16:47:57.444Z,3.63
2022-08-29T16:50:27.247Z,3.38
2022-08-29T16:52:55.771Z,3.50
2022-08-29T16:55:25.295Z,3.47
2022-08-29T16:58:11.576Z,3.35
2022-08-29T17:00:41.705Z,3.30
2022-08-29T17:03:10.162Z,3.50
2022-08-29T17:05:38.830Z,3.60
2022-08-29T17:08:05.868Z,3.50
2022-08-29T17:10:33.111Z,3.70
2022-08-29T17:13:00.758Z,3.42
2022-08-29T17:15:27.717Z,3.53
2022-08-29T17:17:57.236Z,3.53
2022-08-29T17:20:25.823Z,3.53
2022-08-29T17:22:54.600Z,3.63
2022-08-29T17:25:23.378Z,3.45
2022-08-29T17:28:14.199Z,3.95
2022-08-29T17:30:40.473Z,3.80
2022-08-29T17:33:11.883Z,4.10
2022-08-29T17:35:40.085Z,3.90
2022-08-29T17:38:10.225Z,3.70
2022-08-29T17:40:40.026Z,3.70
2022-08-29T17:43:10.534Z,3.85
2022-08-29T17:45:39.552Z,3.40
2022-08-29T17:48:09.387Z,3.67
2022-08-29T17:50:37.824Z,3.72
2022-08-29T17:53:06.770Z,3.53
2022-08-29T17:55:34.869Z,3.78
2022-08-29T17:58:03.326Z,3.50
2022-08-29T18:00:31.970Z,3.70
2022-08-29T18:03:00.359Z,4.10
2022-08-29T18:05:29.952Z,3.63
2022-08-29T18:07:58.359Z,3.80
2022-08-29T18:10:27.324Z,3.50
2022-08-29T18:12:55.805Z,3.80
2022-08-29T18:15:24.236Z,3.42
2022-08-29T18:17:54.166Z,3.40
2022-08-29T18:20:23.325Z,3.83
2022-08-29T18:22:53.148Z,4.22
2022-08-29T18:25:24.095Z,3.50
2022-08-29T18:27:52.249Z,3.60
2022-08-29T18:30:23.051Z,3.65
2022-08-29T18:32:51.557Z,3.78
2022-08-29T18:35:19.867Z,3.85
2022-08-29T18:37:48.350Z,3.97
2022-08-29T18:40:17.931Z,3.67
2022-08-29T18:42:46.141Z,4.03
2022-08-29T18:45:14.733Z,3.55
2022-08-29T18:47:42.830Z,3.90
2022-08-29T18:50:29.479Z,3.53
2022-08-29T18:52:59.657Z,3.90
2022-08-29T18:55:29.902Z,3.95
2022-08-29T18:57:58.571Z,3.80
2022-08-29T19:00:27.628Z,3.70
2022-08-29T19:02:56.783Z,4.20
2022-08-29T19:05:26.868Z,3.55
2022-08-29T19:07:55.421Z,3.72
2022-08-29T19:10:29.166Z,3.50
2022-08-29T19:13:01.009Z,3.85
2022-08-29T19:15:30.709Z,3.97
2022-08-29T19:17:58.899Z,3.85
2022-08-29T19:20:46.800Z,3.33
2022-08-29T19:23:16.121Z,3.70
2022-08-29T19:25:45.641Z,3.85
2022-08-29T19:28:16.546Z,4.00
2022-08-29T19:30:45.228Z,3.55
2022-08-29T19:33:17.992Z,4.13
2022-08-29T19:35:49.050Z,3.70
2022-08-29T19:38:17.372Z,4.22
2022-08-29T19:40:45.980Z,4.03
2022-08-29T19:43:17.124Z,3.90
2022-08-29T19:45:45.720Z,4.13
2022-08-29T19:48:15.609Z,4.15
2022-08-29T19:50:47.623Z,3.42
2022-08-29T19:53:26.145Z,4.07
2022-08-29T19:55:57.682Z,3.95
2022-08-29T19:58:31.820Z,3.85
2022-08-29T20:03:29.330Z,4.20
2022-08-29T20:05:59.502Z,3.80
2022-08-29T20:08:29.338Z,4.20
2022-08-29T20:10:59.934Z,4.00
2022-08-29T20:13:34.782Z,4.00
2022-08-29T20:16:04.763Z,4.03
2022-08-29T20:18:33.478Z,4.03
2022-08-29T20:21:01.598Z,3.90
2022-08-29T20:23:32.161Z,3.97
2022-08-29T20:26:03.448Z,3.58
2022-08-29T20:28:33.497Z,3.90
2022-08-29T20:31:02.061Z,4.32
2022-08-29T20:33:30.377Z,4.30
2022-08-29T20:36:16.157Z,3.85
2022-08-29T20:38:44.492Z,4.78
2022-08-29T20:41:12.765Z,4.45
2022-08-29T20:43:42.527Z,4.53
2022-08-29T20:46:12.767Z,4.15
2022-08-29T20:48:41.495Z,4.28
2022-08-29T20:51:11.926Z,3.75
2022-08-29T20:53:42.119Z,4.28
2022-08-29T20:56:11.350Z,4.30
2022-08-29T20:58:40.928Z,3.67
2022-08-29T21:01:09.126Z,4.22
2022-08-29T21:03:54.927Z,4.35
2022-08-29T21:06:23.309Z,4.63
2022-08-29T21:08:51.415Z,4.13
2022-08-29T21:11:19.678Z,4.40
2022-08-29T21:13:53.094Z,4.18
2022-08-29T21:16:22.153Z,4.63
2022-08-29T21:18:53.219Z,4.13
2022-08-29T21:21:24.650Z,4.88
2022-08-29T21:23:54.416Z,4.57
2022-08-29T21:26:22.530Z,4.90
2022-08-29T21:28:52.117Z,4.95
2022-08-29T21:31:23.604Z,4.53
2022-08-29T21:33:52.830Z,4.55
2022-08-29T21:36:23.365Z,4.78
2022-08-29T21:38:54.387Z,4.70
2022-08-29T21:41:23.849Z,4.32
2022-08-29T21:43:53.913Z,4.65
2022-08-29T21:46:24.452Z,4.95
2022-08-29T21:48:56.573Z,4.63
2022-08-29T21:51:25.531Z,4.53
2022-08-29T21:53:56.185Z,5.07
2022-08-29T21:56:25.013Z,4.95
2022-08-29T21:58:56.156Z,4.70
2022-08-29T22:01:27.656Z,5.10
2022-08-29T22:03:56.762Z,5.00
2022-08-29T22:06:27.624Z,4.82
2022-08-29T22:08:57.624Z,4.55
2022-08-29T22:11:37.594Z,4.75
2022-08-29T22:14:09.467Z,4.82
2022-08-29T22:16:38.027Z,4.88
2022-08-29T22:19:08.393Z,5.03
2022-08-29T22:21:40.168Z,4.65
2022-08-29T22:24:09.999Z,5.35
2022-08-29T22:26:39.874Z,4.57
2022-08-29T22:29:11.731Z,4.90
2022-08-29T22:31:42.377Z,5.07
2022-08-29T22:34:11.360Z,4.68
2022-08-29T22:36:39.645Z,5.00
2022-08-29T22:39:07.935Z,4.78
2022-08-29T22:41:36.671Z,5.03
2022-08-29T22:44:52.700Z,4.72
2022-08-29T22:46:55.946Z,5.22
2022-08-29T22:49:27.667Z,4.95
2022-08-29T22:52:02.054Z,5.40
2022-08-29T22:54:36.487Z,5.22
2022-08-29T22:57:07.038Z,5.20
2022-08-29T22:59:35.441Z,5.45
2022-08-29T23:02:06.438Z,4.38
2022-08-29T23:08:07.029Z,5.15
2022-08-29T23:10:35.144Z,5.93
2022-08-29T23:13:03.366Z,5.22
2022-08-29T23:15:33.638Z,5.75
2022-08-29T23:18:05.369Z,5.72
2022-08-29T23:20:33.925Z,5.57
2022-08-29T23:23:04.252Z,5.35
2022-08-29T23:25:37.033Z,5.65
2022-08-29T23:28:05.594Z,6.20
2022-08-29T23:30:34.111Z,5.90
2022-08-29T23:33:02.612Z,6.13
2022-08-29T23:35:32.106Z,6.25
2022-08-29T23:50:35.052Z,5.80
2022-08-29T23:53:03.385Z,7.25
2022-08-29T23:55:31.532Z,6.95
2022-08-29T23:57:59.866Z,7.63
